sensor_id;sensor_type;location;lat;lon;timestamp;P1;durP1;ratioP1;P2;durP2;ratioP2
37205;SDS011;23099;42.636;23.198;2023-02-01T07:08:12;10.33;;;4.00;;
37205;SDS011;23099;42.636;23.198;2023-02-01T07:10:38;11.77;;;5.07;;
37205;SDS011;23099;42.636;23.198;2023-02-01T07:13:05;14.37;;;5.37;;
37205;SDS011;23099;42.636;23.198;2023-02-01T07:15:32;10.53;;;3.63;;
37205;SDS011;23099;42.636;23.198;2023-02-01T07:17:59;11.83;;;3.83;;
37205;SDS011;23099;42.636;23.198;2023-02-01T07:20:25;10.80;;;3.03;;
37205;SDS011;23099;42.636;23.198;2023-02-01T07:22:54;6.43;;;1.80;;
37205;SDS011;23099;42.636;23.198;2023-02-01T07:25:23;8.50;;;2.53;;
37205;SDS011;23099;42.636;23.198;2023-02-01T07:30:17;10.67;;;3.60;;
37205;SDS011;23099;42.636;23.198;2023-02-01T07:32:44;15.13;;;6.20;;
37205;SDS011;23099;42.636;23.198;2023-02-01T07:35:11;11.40;;;4.30;;
37205;SDS011;23099;42.636;23.198;2023-02-01T07:37:39;10.77;;;3.85;;
37205;SDS011;23099;42.636;23.198;2023-02-01T07:40:06;10.37;;;3.47;;
37205;SDS011;23099;42.636;23.198;2023-02-01T07:42:35;12.05;;;4.50;;
37205;SDS011;23099;42.636;23.198;2023-02-01T07:45:01;12.40;;;5.15;;
37205;SDS011;23099;42.636;23.198;2023-02-01T07:47:29;13.67;;;6.73;;
37205;SDS011;23099;42.636;23.198;2023-02-01T07:49:55;14.40;;;5.97;;
37205;SDS011;23099;42.636;23.198;2023-02-01T07:52:22;10.17;;;3.10;;
37205;SDS011;23099;42.636;23.198;2023-02-01T07:54:48;11.50;;;4.10;;
37205;SDS011;23099;42.636;23.198;2023-02-01T07:57:15;13.13;;;5.40;;
37205;SDS011;23099;42.636;23.198;2023-02-01T07:59:43;14.13;;;5.40;;
37205;SDS011;23099;42.636;23.198;2023-02-01T08:02:24;12.67;;;3.33;;
37205;SDS011;23099;42.636;23.198;2023-02-01T08:04:50;11.67;;;4.63;;
37205;SDS011;23099;42.636;23.198;2023-02-01T08:07:17;14.00;;;4.33;;
37205;SDS011;23099;42.636;23.198;2023-02-01T08:09:44;10.30;;;3.20;;
37205;SDS011;23099;42.636;23.198;2023-02-01T08:12:10;8.73;;;3.43;;
37205;SDS011;23099;42.636;23.198;2023-02-01T08:14:37;12.50;;;3.10;;
37205;SDS011;23099;42.636;23.198;2023-02-01T08:19:33;12.63;;;3.65;;
37205;SDS011;23099;42.636;23.198;2023-02-01T08:22:00;10.90;;;5.40;;
37205;SDS011;23099;42.636;23.198;2023-02-01T08:24:31;11.70;;;4.40;;
37205;SDS011;23099;42.636;23.198;2023-02-01T08:27:00;4.80;;;1.33;;
37205;SDS011;23099;42.636;23.198;2023-02-01T08:29:26;9.32;;;2.60;;
37205;SDS011;23099;42.636;23.198;2023-02-01T08:31:53;11.43;;;3.70;;
37205;SDS011;23099;42.636;23.198;2023-02-01T08:34:21;9.70;;;2.87;;
37205;SDS011;23099;42.636;23.198;2023-02-01T08:36:48;10.02;;;2.70;;
37205;SDS011;23099;42.636;23.198;2023-02-01T08:39:16;8.40;;;2.97;;
37205;SDS011;23099;42.636;23.198;2023-02-01T08:41:43;11.10;;;3.30;;
37205;SDS011;23099;42.636;23.198;2023-02-01T08:44:30;14.33;;;4.10;;
37205;SDS011;23099;42.636;23.198;2023-02-01T08:46:57;8.83;;;2.97;;
37205;SDS011;23099;42.636;23.198;2023-02-01T08:49:25;10.57;;;3.20;;
37205;SDS011;23099;42.636;23.198;2023-02-01T08:51:52;10.95;;;3.97;;
37205;SDS011;23099;42.636;23.198;2023-02-01T08:54:18;11.43;;;3.83;;
37205;SDS011;23099;42.636;23.198;2023-02-01T08:56:45;14.23;;;3.40;;
37205;SDS011;23099;42.636;23.198;2023-02-01T08:59:12;12.37;;;3.37;;
37205;SDS011;23099;42.636;23.198;2023-02-01T09:01:38;10.60;;;3.37;;
37205;SDS011;23099;42.636;23.198;2023-02-01T09:04:05;12.43;;;2.93;;
37205;SDS011;23099;42.636;23.198;2023-02-01T09:06:33;8.80;;;1.67;;
37205;SDS011;23099;42.636;23.198;2023-02-01T09:09:00;6.93;;;1.42;;
37205;SDS011;23099;42.636;23.198;2023-02-01T09:11:26;8.80;;;2.30;;
37205;SDS011;23099;42.636;23.198;2023-02-01T09:13:53;6.13;;;1.20;;
37205;SDS011;23099;42.636;23.198;2023-02-01T09:16:20;13.40;;;3.93;;
37205;SDS011;23099;42.636;23.198;2023-02-01T09:18:46;6.77;;;1.60;;
37205;SDS011;23099;42.636;23.198;2023-02-01T09:21:13;8.57;;;1.80;;
37205;SDS011;23099;42.636;23.198;2023-02-01T09:23:41;7.37;;;2.27;;
37205;SDS011;23099;42.636;23.198;2023-02-01T09:26:08;13.98;;;3.97;;
37205;SDS011;23099;42.636;23.198;2023-02-01T09:28:36;11.48;;;3.55;;
37205;SDS011;23099;42.636;23.198;2023-02-01T09:31:03;9.80;;;2.37;;
37205;SDS011;23099;42.636;23.198;2023-02-01T09:33:29;7.27;;;1.50;;
37205;SDS011;23099;42.636;23.198;2023-02-01T09:35:56;6.93;;;2.03;;
37205;SDS011;23099;42.636;23.198;2023-02-01T09:38:24;8.40;;;2.57;;
37205;SDS011;23099;42.636;23.198;2023-02-01T09:40:53;7.35;;;2.03;;
37205;SDS011;23099;42.636;23.198;2023-02-01T09:43:24;6.67;;;1.40;;
37205;SDS011;23099;42.636;23.198;2023-02-01T09:46:06;8.10;;;1.93;;
37205;SDS011;23099;42.636;23.198;2023-02-01T09:48:45;20.33;;;5.13;;
37205;SDS011;23099;42.636;23.198;2023-02-01T09:51:15;12.87;;;2.83;;
37205;SDS011;23099;42.636;23.198;2023-02-01T09:53:47;19.27;;;4.07;;
37205;SDS011;23099;42.636;23.198;2023-02-01T09:56:29;15.40;;;4.17;;
37205;SDS011;23099;42.636;23.198;2023-02-01T09:59:01;9.67;;;2.40;;
37205;SDS011;23099;42.636;23.198;2023-02-01T10:01:35;3.97;;;0.90;;
37205;SDS011;23099;42.636;23.198;2023-02-01T10:04:05;4.97;;;0.80;;
37205;SDS011;23099;42.636;23.198;2023-02-01T10:06:36;6.30;;;1.00;;
37205;SDS011;23099;42.636;23.198;2023-02-01T10:09:20;6.07;;;1.65;;
37205;SDS011;23099;42.636;23.198;2023-02-01T10:15:02;8.63;;;1.52;;
37205;SDS011;23099;42.636;23.198;2023-02-01T10:17:45;11.70;;;2.25;;
37205;SDS011;23099;42.636;23.198;2023-02-01T10:20:20;12.13;;;2.33;;
37205;SDS011;23099;42.636;23.198;2023-02-01T10:22:54;9.50;;;1.77;;
37205;SDS011;23099;42.636;23.198;2023-02-01T10:25:33;8.00;;;1.92;;
37205;SDS011;23099;42.636;23.198;2023-02-01T10:28:04;10.40;;;2.20;;
37205;SDS011;23099;42.636;23.198;2023-02-01T10:30:37;7.75;;;2.60;;
37205;SDS011;23099;42.636;23.198;2023-02-01T10:33:13;9.00;;;1.90;;
37205;SDS011;23099;42.636;23.198;2023-02-01T10:35:42;5.15;;;1.42;;
37205;SDS011;23099;42.636;23.198;2023-02-01T10:38:12;8.93;;;2.95;;
37205;SDS011;23099;42.636;23.198;2023-02-01T10:40:49;6.85;;;1.40;;
37205;SDS011;23099;42.636;23.198;2023-02-01T10:43:18;7.15;;;1.33;;
37205;SDS011;23099;42.636;23.198;2023-02-01T10:45:46;10.35;;;1.75;;
37205;SDS011;23099;42.636;23.198;2023-02-01T10:48:13;9.15;;;2.38;;
37205;SDS011;23099;42.636;23.198;2023-02-01T10:50:41;7.55;;;2.20;;
37205;SDS011;23099;42.636;23.198;2023-02-01T10:53:17;7.60;;;1.60;;
37205;SDS011;23099;42.636;23.198;2023-02-01T10:55:47;9.73;;;2.87;;
37205;SDS011;23099;42.636;23.198;2023-02-01T10:58:16;5.73;;;1.03;;
37205;SDS011;23099;42.636;23.198;2023-02-01T11:00:47;12.70;;;3.50;;
37205;SDS011;23099;42.636;23.198;2023-02-01T11:03:27;8.33;;;2.50;;
37205;SDS011;23099;42.636;23.198;2023-02-01T11:05:59;11.47;;;2.77;;
37205;SDS011;23099;42.636;23.198;2023-02-01T11:08:27;7.60;;;2.25;;
37205;SDS011;23099;42.636;23.198;2023-02-01T11:10:57;17.17;;;5.07;;
37205;SDS011;23099;42.636;23.198;2023-02-01T11:13:28;4.23;;;1.03;;
37205;SDS011;23099;42.636;23.198;2023-02-01T11:15:57;6.82;;;1.17;;
37205;SDS011;23099;42.636;23.198;2023-02-01T11:18:25;6.22;;;1.23;;
37205;SDS011;23099;42.636;23.198;2023-02-01T11:20:54;5.65;;;1.35;;
37205;SDS011;23099;42.636;23.198;2023-02-01T11:23:21;7.77;;;1.87;;
37205;SDS011;23099;42.636;23.198;2023-02-01T11:25:51;8.00;;;2.08;;
37205;SDS011;23099;42.636;23.198;2023-02-01T11:28:20;4.15;;;0.90;;
37205;SDS011;23099;42.636;23.198;2023-02-01T11:30:50;6.97;;;1.17;;
37205;SDS011;23099;42.636;23.198;2023-02-01T11:33:23;3.67;;;0.93;;
37205;SDS011;23099;42.636;23.198;2023-02-01T11:35:54;4.72;;;1.05;;
37205;SDS011;23099;42.636;23.198;2023-02-01T11:38:25;5.10;;;1.00;;
37205;SDS011;23099;42.636;23.198;2023-02-01T11:40:54;3.20;;;0.70;;
37205;SDS011;23099;42.636;23.198;2023-02-01T11:43:22;6.80;;;1.70;;
37205;SDS011;23099;42.636;23.198;2023-02-01T11:45:54;7.47;;;1.40;;
37205;SDS011;23099;42.636;23.198;2023-02-01T11:48:24;5.97;;;1.05;;
37205;SDS011;23099;42.636;23.198;2023-02-01T11:50:55;3.63;;;0.70;;
37205;SDS011;23099;42.636;23.198;2023-02-01T11:53:34;5.30;;;1.42;;
37205;SDS011;23099;42.636;23.198;2023-02-01T11:56:16;4.63;;;1.30;;
37205;SDS011;23099;42.636;23.198;2023-02-01T11:58:59;4.20;;;1.13;;
37205;SDS011;23099;42.636;23.198;2023-02-01T12:01:41;3.75;;;0.85;;
37205;SDS011;23099;42.636;23.198;2023-02-01T12:07:24;5.40;;;1.05;;
37205;SDS011;23099;42.636;23.198;2023-02-01T12:10:05;5.85;;;0.93;;
37205;SDS011;23099;42.636;23.198;2023-02-01T12:12:47;10.82;;;2.55;;
37205;SDS011;23099;42.636;23.198;2023-02-01T12:15:22;5.93;;;0.80;;
37205;SDS011;23099;42.636;23.198;2023-02-01T12:18:05;5.97;;;0.90;;
37205;SDS011;23099;42.636;23.198;2023-02-01T12:23:42;4.95;;;0.90;;
37205;SDS011;23099;42.636;23.198;2023-02-01T12:26:35;4.10;;;0.70;;
37205;SDS011;23099;42.636;23.198;2023-02-01T12:29:17;6.55;;;1.77;;
37205;SDS011;23099;42.636;23.198;2023-02-01T12:32:08;8.38;;;2.47;;
37205;SDS011;23099;42.636;23.198;2023-02-01T12:34:44;7.43;;;1.40;;
37205;SDS011;23099;42.636;23.198;2023-02-01T12:37:33;7.15;;;1.25;;
37205;SDS011;23099;42.636;23.198;2023-02-01T12:40:13;6.13;;;1.55;;
37205;SDS011;23099;42.636;23.198;2023-02-01T12:42:49;4.85;;;0.80;;
37205;SDS011;23099;42.636;23.198;2023-02-01T12:45:28;4.88;;;0.90;;
37205;SDS011;23099;42.636;23.198;2023-02-01T12:48:00;4.28;;;0.73;;
37205;SDS011;23099;42.636;23.198;2023-02-01T12:50:39;6.07;;;1.30;;
37205;SDS011;23099;42.636;23.198;2023-02-01T12:53:14;5.25;;;1.20;;
37205;SDS011;23099;42.636;23.198;2023-02-01T12:55:49;6.93;;;1.00;;
37205;SDS011;23099;42.636;23.198;2023-02-01T12:58:20;6.40;;;1.00;;
37205;SDS011;23099;42.636;23.198;2023-02-01T13:00:52;6.13;;;1.70;;
37205;SDS011;23099;42.636;23.198;2023-02-01T13:03:32;6.57;;;1.52;;
37205;SDS011;23099;42.636;23.198;2023-02-01T13:06:05;5.00;;;1.10;;
37205;SDS011;23099;42.636;23.198;2023-02-01T13:08:40;8.65;;;2.08;;
37205;SDS011;23099;42.636;23.198;2023-02-01T13:11:11;6.90;;;1.58;;
37205;SDS011;23099;42.636;23.198;2023-02-01T13:13:45;8.98;;;1.55;;
37205;SDS011;23099;42.636;23.198;2023-02-01T13:16:21;7.32;;;1.10;;
37205;SDS011;23099;42.636;23.198;2023-02-01T13:18:55;4.07;;;0.90;;
37205;SDS011;23099;42.636;23.198;2023-02-01T13:21:27;5.38;;;1.35;;
37205;SDS011;23099;42.636;23.198;2023-02-01T13:24:00;4.05;;;0.88;;
37205;SDS011;23099;42.636;23.198;2023-02-01T13:26:28;3.22;;;0.50;;
37205;SDS011;23099;42.636;23.198;2023-02-01T13:28:56;2.83;;;0.50;;
37205;SDS011;23099;42.636;23.198;2023-02-01T13:31:33;5.65;;;0.68;;
37205;SDS011;23099;42.636;23.198;2023-02-01T13:37:20;7.85;;;1.40;;
37205;SDS011;23099;42.636;23.198;2023-02-01T13:40:03;11.50;;;2.90;;
37205;SDS011;23099;42.636;23.198;2023-02-01T13:42:53;6.72;;;1.40;;
37205;SDS011;23099;42.636;23.198;2023-02-01T13:45:22;4.65;;;1.38;;
37205;SDS011;23099;42.636;23.198;2023-02-01T13:47:53;7.78;;;1.80;;
37205;SDS011;23099;42.636;23.198;2023-02-01T13:50:24;6.50;;;0.93;;
37205;SDS011;23099;42.636;23.198;2023-02-01T13:52:55;6.72;;;1.23;;
37205;SDS011;23099;42.636;23.198;2023-02-01T13:55:27;16.83;;;4.47;;
37205;SDS011;23099;42.636;23.198;2023-02-01T13:58:01;3.90;;;0.77;;
37205;SDS011;23099;42.636;23.198;2023-02-01T14:00:32;4.00;;;0.70;;
37205;SDS011;23099;42.636;23.198;2023-02-01T14:11:48;4.03;;;0.60;;
37205;SDS011;23099;42.636;23.198;2023-02-01T14:26:12;7.38;;;1.15;;
37205;SDS011;23099;42.636;23.198;2023-02-01T14:28:46;2.95;;;0.50;;
37205;SDS011;23099;42.636;23.198;2023-02-01T14:34:15;4.45;;;0.80;;
37205;SDS011;23099;42.636;23.198;2023-02-01T14:36:46;10.90;;;2.60;;
37205;SDS011;23099;42.636;23.198;2023-02-01T14:39:20;4.32;;;1.05;;
37205;SDS011;23099;42.636;23.198;2023-02-01T14:41:51;4.55;;;0.77;;
37205;SDS011;23099;42.636;23.198;2023-02-01T14:44:27;2.25;;;0.50;;
37205;SDS011;23099;42.636;23.198;2023-02-01T14:47:02;5.65;;;1.00;;
37205;SDS011;23099;42.636;23.198;2023-02-01T14:49:36;2.40;;;0.60;;
37205;SDS011;23099;42.636;23.198;2023-02-01T14:52:09;5.57;;;1.42;;
37205;SDS011;23099;42.636;23.198;2023-02-01T14:54:40;6.88;;;1.73;;
37205;SDS011;23099;42.636;23.198;2023-02-01T14:57:10;4.18;;;0.95;;
37205;SDS011;23099;42.636;23.198;2023-02-01T14:59:43;7.15;;;1.40;;
37205;SDS011;23099;42.636;23.198;2023-02-01T15:02:17;8.07;;;2.03;;
37205;SDS011;23099;42.636;23.198;2023-02-01T15:04:47;9.95;;;2.25;;
37205;SDS011;23099;42.636;23.198;2023-02-01T15:07:21;22.92;;;7.50;;
37205;SDS011;23099;42.636;23.198;2023-02-01T15:09:50;11.75;;;3.60;;
37205;SDS011;23099;42.636;23.198;2023-02-01T15:12:18;16.73;;;5.97;;
37205;SDS011;23099;42.636;23.198;2023-02-01T15:15:09;16.88;;;5.63;;
37205;SDS011;23099;42.636;23.198;2023-02-01T15:17:38;14.55;;;4.57;;
37205;SDS011;23099;42.636;23.198;2023-02-01T15:20:12;18.65;;;6.00;;
37205;SDS011;23099;42.636;23.198;2023-02-01T15:22:40;17.10;;;5.90;;
37205;SDS011;23099;42.636;23.198;2023-02-01T15:25:17;39.00;;;13.55;;
37205;SDS011;23099;42.636;23.198;2023-02-01T15:27:45;42.60;;;14.10;;
37205;SDS011;23099;42.636;23.198;2023-02-01T15:30:17;27.40;;;9.15;;
37205;SDS011;23099;42.636;23.198;2023-02-01T15:32:46;36.33;;;12.73;;
37205;SDS011;23099;42.636;23.198;2023-02-01T15:41:02;41.67;;;14.47;;
37205;SDS011;23099;42.636;23.198;2023-02-01T15:43:33;68.60;;;26.83;;
37205;SDS011;23099;42.636;23.198;2023-02-01T15:46:07;55.07;;;21.63;;
37205;SDS011;23099;42.636;23.198;2023-02-01T15:48:36;41.90;;;18.93;;
37205;SDS011;23099;42.636;23.198;2023-02-01T15:51:11;33.23;;;15.17;;
37205;SDS011;23099;42.636;23.198;2023-02-01T15:53:43;32.53;;;12.13;;
37205;SDS011;23099;42.636;23.198;2023-02-01T15:56:12;29.67;;;12.93;;
37205;SDS011;23099;42.636;23.198;2023-02-01T15:58:41;40.65;;;11.85;;
37205;SDS011;23099;42.636;23.198;2023-02-01T16:01:12;50.67;;;15.23;;
37205;SDS011;23099;42.636;23.198;2023-02-01T16:03:40;35.40;;;14.20;;
37205;SDS011;23099;42.636;23.198;2023-02-01T16:06:09;31.20;;;10.70;;
37205;SDS011;23099;42.636;23.198;2023-02-01T16:08:37;60.63;;;18.57;;
37205;SDS011;23099;42.636;23.198;2023-02-01T16:11:24;37.97;;;16.77;;
37205;SDS011;23099;42.636;23.198;2023-02-01T16:13:55;30.27;;;12.70;;
37205;SDS011;23099;42.636;23.198;2023-02-01T16:16:23;27.10;;;12.40;;
37205;SDS011;23099;42.636;23.198;2023-02-01T16:18:50;28.08;;;11.15;;
37205;SDS011;23099;42.636;23.198;2023-02-01T16:21:17;21.37;;;8.70;;
37205;SDS011;23099;42.636;23.198;2023-02-01T16:23:43;29.67;;;11.50;;
37205;SDS011;23099;42.636;23.198;2023-02-01T16:26:14;33.43;;;11.47;;
37205;SDS011;23099;42.636;23.198;2023-02-01T16:28:40;47.43;;;17.13;;
37205;SDS011;23099;42.636;23.198;2023-02-01T16:31:09;28.30;;;11.50;;
37205;SDS011;23099;42.636;23.198;2023-02-01T16:33:43;21.63;;;9.37;;
37205;SDS011;23099;42.636;23.198;2023-02-01T16:36:09;33.88;;;12.45;;
37205;SDS011;23099;42.636;23.198;2023-02-01T16:38:38;33.47;;;12.63;;
37205;SDS011;23099;42.636;23.198;2023-02-01T16:41:05;24.73;;;9.77;;
37205;SDS011;23099;42.636;23.198;2023-02-01T16:46:00;34.87;;;14.20;;
37205;SDS011;23099;42.636;23.198;2023-02-01T16:48:29;34.55;;;15.15;;
37205;SDS011;23099;42.636;23.198;2023-02-01T16:50:59;33.17;;;15.63;;
37205;SDS011;23099;42.636;23.198;2023-02-01T16:53:28;36.57;;;16.33;;
37205;SDS011;23099;42.636;23.198;2023-02-01T16:55:56;44.73;;;21.50;;
37205;SDS011;23099;42.636;23.198;2023-02-01T16:58:23;36.23;;;16.53;;
37205;SDS011;23099;42.636;23.198;2023-02-01T17:00:51;44.08;;;19.63;;
37205;SDS011;23099;42.636;23.198;2023-02-01T17:03:19;39.42;;;17.80;;
37205;SDS011;23099;42.636;23.198;2023-02-01T17:05:47;38.13;;;15.75;;
37205;SDS011;23099;42.636;23.198;2023-02-01T17:08:18;33.47;;;14.13;;
37205;SDS011;23099;42.636;23.198;2023-02-01T17:10:51;32.33;;;13.13;;
37205;SDS011;23099;42.636;23.198;2023-02-01T17:13:18;40.40;;;15.83;;
37205;SDS011;23099;42.636;23.198;2023-02-01T17:15:45;50.33;;;17.77;;
37205;SDS011;23099;42.636;23.198;2023-02-01T17:18:16;40.37;;;15.97;;
37205;SDS011;23099;42.636;23.198;2023-02-01T17:20:44;74.13;;;29.67;;
37205;SDS011;23099;42.636;23.198;2023-02-01T17:23:12;64.90;;;28.08;;
37205;SDS011;23099;42.636;23.198;2023-02-01T17:25:41;64.45;;;25.20;;
37205;SDS011;23099;42.636;23.198;2023-02-01T17:28:08;55.72;;;22.48;;
37205;SDS011;23099;42.636;23.198;2023-02-01T17:30:35;36.23;;;16.60;;
37205;SDS011;23099;42.636;23.198;2023-02-01T17:33:03;32.97;;;13.60;;
37205;SDS011;23099;42.636;23.198;2023-02-01T17:35:34;29.13;;;12.50;;
37205;SDS011;23099;42.636;23.198;2023-02-01T17:38:00;31.47;;;11.37;;
37205;SDS011;23099;42.636;23.198;2023-02-01T17:40:27;38.50;;;16.40;;
37205;SDS011;23099;42.636;23.198;2023-02-01T17:42:57;40.95;;;13.98;;
37205;SDS011;23099;42.636;23.198;2023-02-01T17:45:31;41.10;;;15.70;;
37205;SDS011;23099;42.636;23.198;2023-02-01T17:48:01;37.90;;;14.93;;
37205;SDS011;23099;42.636;23.198;2023-02-01T17:50:29;31.77;;;12.43;;
37205;SDS011;23099;42.636;23.198;2023-02-01T17:52:57;37.23;;;14.67;;
37205;SDS011;23099;42.636;23.198;2023-02-01T17:55:25;45.47;;;17.17;;
37205;SDS011;23099;42.636;23.198;2023-02-01T17:57:52;36.83;;;12.95;;
37205;SDS011;23099;42.636;23.198;2023-02-01T18:00:20;31.03;;;12.97;;
37205;SDS011;23099;42.636;23.198;2023-02-01T18:02:47;53.77;;;18.53;;
37205;SDS011;23099;42.636;23.198;2023-02-01T18:05:15;20.60;;;6.97;;
37205;SDS011;23099;42.636;23.198;2023-02-01T18:07:46;21.93;;;7.63;;
37205;SDS011;23099;42.636;23.198;2023-02-01T18:10:12;17.53;;;6.50;;
37205;SDS011;23099;42.636;23.198;2023-02-01T18:12:39;19.00;;;6.70;;
37205;SDS011;23099;42.636;23.198;2023-02-01T18:15:13;18.53;;;5.63;;
37205;SDS011;23099;42.636;23.198;2023-02-01T18:17:43;15.90;;;5.87;;
37205;SDS011;23099;42.636;23.198;2023-02-01T18:20:13;31.73;;;10.02;;
37205;SDS011;23099;42.636;23.198;2023-02-01T18:22:41;31.07;;;10.10;;
37205;SDS011;23099;42.636;23.198;2023-02-01T18:25:12;30.02;;;10.88;;
37205;SDS011;23099;42.636;23.198;2023-02-01T18:27:42;26.60;;;9.60;;
37205;SDS011;23099;42.636;23.198;2023-02-01T18:30:09;23.00;;;7.80;;
37205;SDS011;23099;42.636;23.198;2023-02-01T18:32:37;22.33;;;8.80;;
37205;SDS011;23099;42.636;23.198;2023-02-01T18:35:11;25.63;;;9.20;;
37205;SDS011;23099;42.636;23.198;2023-02-01T18:37:44;25.10;;;8.63;;
37205;SDS011;23099;42.636;23.198;2023-02-01T18:40:15;26.83;;;9.93;;
37205;SDS011;23099;42.636;23.198;2023-02-01T18:42:43;25.87;;;10.77;;
37205;SDS011;23099;42.636;23.198;2023-02-01T18:45:20;21.87;;;8.60;;
37205;SDS011;23099;42.636;23.198;2023-02-01T18:47:49;25.13;;;9.83;;
37205;SDS011;23099;42.636;23.198;2023-02-01T18:50:18;20.87;;;7.33;;
37205;SDS011;23099;42.636;23.198;2023-02-01T18:52:45;18.53;;;5.00;;
37205;SDS011;23099;42.636;23.198;2023-02-01T18:55:12;18.13;;;7.17;;
37205;SDS011;23099;42.636;23.198;2023-02-01T18:57:39;21.57;;;7.60;;
37205;SDS011;23099;42.636;23.198;2023-02-01T19:00:07;23.50;;;10.37;;
37205;SDS011;23099;42.636;23.198;2023-02-01T19:02:35;25.43;;;11.07;;
37205;SDS011;23099;42.636;23.198;2023-02-01T19:05:03;22.30;;;7.32;;
37205;SDS011;23099;42.636;23.198;2023-02-01T19:07:33;25.60;;;9.70;;
37205;SDS011;23099;42.636;23.198;2023-02-01T19:10:00;22.13;;;9.15;;
37205;SDS011;23099;42.636;23.198;2023-02-01T19:12:27;18.73;;;7.07;;
37205;SDS011;23099;42.636;23.198;2023-02-01T19:14:54;16.07;;;5.57;;
37205;SDS011;23099;42.636;23.198;2023-02-01T19:17:20;16.93;;;6.23;;
37205;SDS011;23099;42.636;23.198;2023-02-01T19:19:47;14.13;;;4.03;;
37205;SDS011;23099;42.636;23.198;2023-02-01T19:22:14;15.33;;;5.47;;
37205;SDS011;23099;42.636;23.198;2023-02-01T19:24:42;12.17;;;3.63;;
37205;SDS011;23099;42.636;23.198;2023-02-01T19:27:09;12.70;;;4.88;;
37205;SDS011;23099;42.636;23.198;2023-02-01T19:29:37;13.57;;;6.13;;
37205;SDS011;23099;42.636;23.198;2023-02-01T19:32:06;13.20;;;5.90;;
37205;SDS011;23099;42.636;23.198;2023-02-01T19:34:33;20.57;;;9.57;;
37205;SDS011;23099;42.636;23.198;2023-02-01T19:36:59;26.80;;;10.13;;
37205;SDS011;23099;42.636;23.198;2023-02-01T19:39:26;20.10;;;6.40;;
37205;SDS011;23099;42.636;23.198;2023-02-01T19:41:54;17.47;;;6.10;;
37205;SDS011;23099;42.636;23.198;2023-02-01T19:44:22;10.77;;;3.23;;
37205;SDS011;23099;42.636;23.198;2023-02-01T19:46:48;19.47;;;5.47;;
37205;SDS011;23099;42.636;23.198;2023-02-01T19:49:15;14.93;;;5.27;;
37205;SDS011;23099;42.636;23.198;2023-02-01T19:51:42;14.90;;;4.53;;
37205;SDS011;23099;42.636;23.198;2023-02-01T19:54:09;9.13;;;2.17;;
37205;SDS011;23099;42.636;23.198;2023-02-01T19:56:36;18.03;;;4.73;;
37205;SDS011;23099;42.636;23.198;2023-02-01T19:59:05;16.10;;;4.57;;
37205;SDS011;23099;42.636;23.198;2023-02-01T20:01:32;15.40;;;3.77;;
37205;SDS011;23099;42.636;23.198;2023-02-01T20:04:02;15.33;;;2.93;;
37205;SDS011;23099;42.636;23.198;2023-02-01T20:06:31;9.93;;;1.63;;
37205;SDS011;23099;42.636;23.198;2023-02-01T20:11:25;16.40;;;5.47;;
37205;SDS011;23099;42.636;23.198;2023-02-01T20:13:52;16.67;;;5.47;;
37205;SDS011;23099;42.636;23.198;2023-02-01T20:16:21;16.43;;;3.67;;
37205;SDS011;23099;42.636;23.198;2023-02-01T20:18:48;23.60;;;6.17;;
37205;SDS011;23099;42.636;23.198;2023-02-01T20:21:16;23.20;;;5.87;;
37205;SDS011;23099;42.636;23.198;2023-02-01T20:23:43;26.88;;;6.32;;
37205;SDS011;23099;42.636;23.198;2023-02-01T20:26:14;27.40;;;5.77;;
37205;SDS011;23099;42.636;23.198;2023-02-01T20:28:40;12.60;;;2.60;;
37205;SDS011;23099;42.636;23.198;2023-02-01T20:31:07;19.30;;;4.03;;
37205;SDS011;23099;42.636;23.198;2023-02-01T20:33:37;21.10;;;5.18;;
37205;SDS011;23099;42.636;23.198;2023-02-01T20:36:04;26.00;;;6.32;;
37205;SDS011;23099;42.636;23.198;2023-02-01T20:38:31;25.23;;;6.73;;
37205;SDS011;23099;42.636;23.198;2023-02-01T20:41:01;23.60;;;4.97;;
37205;SDS011;23099;42.636;23.198;2023-02-01T20:43:28;16.43;;;5.23;;
37205;SDS011;23099;42.636;23.198;2023-02-01T20:45:55;16.40;;;5.83;;
37205;SDS011;23099;42.636;23.198;2023-02-01T20:48:22;16.87;;;5.53;;
37205;SDS011;23099;42.636;23.198;2023-02-01T20:50:52;23.50;;;8.00;;
37205;SDS011;23099;42.636;23.198;2023-02-01T20:53:19;32.03;;;9.53;;
37205;SDS011;23099;42.636;23.198;2023-02-01T20:55:49;25.30;;;6.10;;
37205;SDS011;23099;42.636;23.198;2023-02-01T20:58:16;16.27;;;3.83;;
37205;SDS011;23099;42.636;23.198;2023-02-01T21:00:43;14.88;;;5.28;;
37205;SDS011;23099;42.636;23.198;2023-02-01T21:03:11;20.33;;;5.53;;
37205;SDS011;23099;42.636;23.198;2023-02-01T21:05:37;50.10;;;15.23;;
37205;SDS011;23099;42.636;23.198;2023-02-01T21:08:09;44.38;;;12.15;;
37205;SDS011;23099;42.636;23.198;2023-02-01T21:10:37;54.97;;;14.97;;
37205;SDS011;23099;42.636;23.198;2023-02-01T21:13:04;19.85;;;5.22;;
37205;SDS011;23099;42.636;23.198;2023-02-01T21:15:32;32.22;;;8.05;;
37205;SDS011;23099;42.636;23.198;2023-02-01T21:18:00;46.10;;;10.75;;
37205;SDS011;23099;42.636;23.198;2023-02-01T21:20:28;28.70;;;7.93;;
37205;SDS011;23099;42.636;23.198;2023-02-01T21:22:55;33.05;;;8.25;;
37205;SDS011;23099;42.636;23.198;2023-02-01T21:25:23;34.55;;;8.48;;
37205;SDS011;23099;42.636;23.198;2023-02-01T21:27:50;51.78;;;11.40;;
37205;SDS011;23099;42.636;23.198;2023-02-01T21:30:17;43.50;;;9.73;;
37205;SDS011;23099;42.636;23.198;2023-02-01T21:32:43;13.57;;;3.13;;
37205;SDS011;23099;42.636;23.198;2023-02-01T21:35:13;15.55;;;4.53;;
37205;SDS011;23099;42.636;23.198;2023-02-01T21:37:40;15.10;;;4.85;;
37205;SDS011;23099;42.636;23.198;2023-02-01T21:40:08;11.75;;;3.95;;
37205;SDS011;23099;42.636;23.198;2023-02-01T21:42:38;12.50;;;3.85;;
37205;SDS011;23099;42.636;23.198;2023-02-01T21:45:07;16.43;;;4.70;;
37205;SDS011;23099;42.636;23.198;2023-02-01T21:47:34;16.52;;;5.95;;
37205;SDS011;23099;42.636;23.198;2023-02-01T21:50:03;17.73;;;5.07;;
37205;SDS011;23099;42.636;23.198;2023-02-01T21:52:31;12.48;;;3.40;;
37205;SDS011;23099;42.636;23.198;2023-02-01T21:54:58;10.43;;;3.30;;
37205;SDS011;23099;42.636;23.198;2023-02-01T21:57:25;13.33;;;3.43;;
37205;SDS011;23099;42.636;23.198;2023-02-01T21:59:54;8.80;;;2.03;;
37205;SDS011;23099;42.636;23.198;2023-02-01T22:02:22;7.35;;;1.55;;
37205;SDS011;23099;42.636;23.198;2023-02-01T22:04:49;8.90;;;2.05;;
37205;SDS011;23099;42.636;23.198;2023-02-01T22:07:16;10.63;;;2.28;;
37205;SDS011;23099;42.636;23.198;2023-02-01T22:09:43;10.07;;;2.73;;
37205;SDS011;23099;42.636;23.198;2023-02-01T22:12:10;9.10;;;2.43;;
37205;SDS011;23099;42.636;23.198;2023-02-01T22:14:38;12.15;;;2.50;;
37205;SDS011;23099;42.636;23.198;2023-02-01T22:17:06;12.23;;;2.90;;
37205;SDS011;23099;42.636;23.198;2023-02-01T22:19:32;16.17;;;3.38;;
37205;SDS011;23099;42.636;23.198;2023-02-01T22:21:59;8.40;;;2.00;;
37205;SDS011;23099;42.636;23.198;2023-02-01T22:24:26;8.50;;;2.47;;
37205;SDS011;23099;42.636;23.198;2023-02-01T22:26:53;14.05;;;3.45;;
37205;SDS011;23099;42.636;23.198;2023-02-01T22:29:19;13.77;;;4.55;;
37205;SDS011;23099;42.636;23.198;2023-02-01T22:31:47;17.48;;;5.93;;
37205;SDS011;23099;42.636;23.198;2023-02-01T22:34:16;18.67;;;5.30;;
37205;SDS011;23099;42.636;23.198;2023-02-01T22:36:42;16.88;;;5.10;;
37205;SDS011;23099;42.636;23.198;2023-02-01T22:39:12;12.90;;;3.43;;